Time;durP1;ratioP1;P1;durP2;ratioP2;P2;SDS_P1;SDS_P2;PMS_P1;PMS_P2;Temp;Humidity;BMP_temperature;BMP_pressure;BME280_temperature;BME280_humidity;BME280_pressure;Samples;Min_cycle;Max_cycle;Signal;HPM_P1;HPM_P2
2022/04/10 00:02:25;;;;;;;10.30;4.50;;;;;;;16.71;45.28;101934.88;5040355;28;20640;-59
2022/04/10 00:04:52;;;;;;;8.07;4.38;;;;;;;16.68;45.83;101937.81;5043303;28;20167;-59
2022/04/10 00:07:18;;;;;;;9.02;4.32;;;;;;;16.67;46.38;101941.44;5043546;28;20131;-59
2022/04/10 00:09:45;;;;;;;7.63;3.95;;;;;;;16.67;46.00;101937.91;5042379;28;20127;-59
2022/04/10 00:12:11;;;;;;;5.50;3.45;;;;;;;16.66;45.20;101938.88;5040982;28;20037;-58
2022/04/10 00:14:38;;;;;;;8.68;4.18;;;;;;;16.65;45.23;101940.72;5039419;28;20483;-58
2022/04/10 00:17:04;;;;;;;7.85;4.40;;;;;;;16.63;46.44;101941.78;5041924;28;20346;-58
2022/04/10 00:19:31;;;;;;;7.47;3.70;;;;;;;16.61;46.25;101933.88;5044238;28;20076;-59
2022/04/10 00:21:58;;;;;;;7.50;3.75;;;;;;;16.60;45.64;101932.16;5022524;28;20131;-59
2022/04/10 00:24:25;;;;;;;11.35;4.18;;;;;;;16.57;46.16;101936.91;5042150;28;20045;-58
2022/04/10 00:26:52;;;;;;;5.85;3.47;;;;;;;16.56;45.34;101936.03;5043979;28;20056;-58
2022/04/10 00:29:19;;;;;;;8.60;4.05;;;;;;;16.57;45.86;101924.38;5044266;28;20081;-58
2022/04/10 00:31:45;;;;;;;8.18;4.28;;;;;;;16.56;46.06;101919.97;5040447;28;20451;-59
2022/04/10 00:34:13;;;;;;;10.15;3.90;;;;;;;16.55;46.37;101923.63;5041937;28;20436;-59
2022/04/10 00:36:39;;;;;;;7.32;3.78;;;;;;;16.56;46.01;101929.84;5042603;28;20041;-59
2022/04/10 00:39:06;;;;;;;7.22;3.38;;;;;;;16.52;45.41;101921.19;5037446;28;20049;-59
2022/04/10 00:41:33;;;;;;;6.32;3.28;;;;;;;16.51;46.49;101924.84;5042926;28;20163;-59
2022/04/10 00:44:05;;;;;;;6.05;3.75;;;;;;;16.49;46.67;101926.78;5041919;28;20068;-58
2022/04/10 00:46:31;;;;;;;8.00;3.83;;;;;;;16.49;46.07;101916.09;5044872;28;20428;-59
2022/04/10 00:48:58;;;;;;;5.50;2.72;;;;;;;16.47;45.92;101916.19;5043607;28;20052;-59
2022/04/10 00:51:43;;;;;;;6.55;3.38;;;;;;;16.48;46.21;101925.94;5041820;28;20073;-58
2022/04/10 00:54:13;;;;;;;5.35;3.30;;;;;;;16.46;46.32;101909.13;5038246;28;20077;-58
2022/04/10 00:56:40;;;;;;;7.38;3.60;;;;;;;16.46;46.01;101916.31;5038932;28;20065;-57
2022/04/10 00:59:07;;;;;;;5.90;2.90;;;;;;;16.44;46.71;101913.78;5041357;28;20045;-58
2022/04/10 01:01:35;;;;;;;5.35;3.00;;;;;;;16.44;45.60;101902.19;5042788;28;20073;-58
2022/04/10 01:04:21;;;;;;;6.22;2.83;;;;;;;16.42;46.94;101909.50;5042620;28;20061;-58
2022/04/10 01:06:49;;;;;;;6.13;2.83;;;;;;;16.39;46.10;101915.91;5043977;28;20063;-59
2022/04/10 01:09:17;;;;;;;5.45;2.83;;;;;;;16.40;46.64;101919.44;5040370;28;20734;-57
2022/04/10 01:11:43;;;;;;;5.40;2.90;;;;;;;16.38;45.87;101910.69;5044097;28;20420;-57
2022/04/10 01:14:12;;;;;;;5.13;3.05;;;;;;;16.38;46.26;101921.41;5045800;28;20203;-58
2022/04/10 01:16:39;;;;;;;6.15;3.05;;;;;;;16.36;46.66;101916.19;5043634;28;20136;-58
2022/04/10 01:19:06;;;;;;;6.57;3.30;;;;;;;16.36;46.80;101928.69;5048156;28;20045;-58
2022/04/10 01:21:42;;;;;;;5.47;2.72;;;;;;;16.35;47.00;101929.66;5046562;28;20143;-58
2022/04/10 01:24:10;;;;;;;5.10;2.60;;;;;;;16.33;45.93;101926.25;5047351;28;20045;-58
2022/04/10 01:26:37;;;;;;;3.97;2.35;;;;;;;16.31;45.98;101939.72;5045806;28;20140;-57
2022/04/10 01:29:06;;;;;;;6.28;3.10;;;;;;;16.29;46.83;101929.16;5044252;28;20045;-57
2022/04/10 01:31:38;;;;;;;4.55;2.42;;;;;;;16.32;47.12;101935.22;5046140;28;20049;-57
2022/04/10 01:34:06;;;;;;;5.22;2.50;;;;;;;16.30;46.35;101938.03;5043524;28;20049;-58
2022/04/10 01:36:34;;;;;;;3.70;2.25;;;;;;;16.29;46.82;101945.22;5042730;28;20048;-57
2022/04/10 01:39:04;;;;;;;6.25;2.47;;;;;;;16.26;46.24;101940.09;5046001;28;20067;-59
2022/04/10 01:41:31;;;;;;;4.88;2.55;;;;;;;16.26;46.76;101937.41;5046109;28;20416;-58
2022/04/10 01:43:58;;;;;;;4.60;2.65;;;;;;;16.25;46.10;101943.72;5045767;28;20707;-59
2022/04/10 01:46:30;;;;;;;4.15;2.15;;;;;;;16.25;46.32;101946.41;5045357;28;20140;-58
2022/04/10 01:48:57;;;;;;;6.68;2.20;;;;;;;16.24;46.30;101936.69;5044735;28;20052;-58
2022/04/10 01:51:24;;;;;;;4.05;1.88;;;;;;;16.24;47.06;101943.81;5046134;28;20064;-58
2022/04/10 01:53:52;;;;;;;4.75;2.22;;;;;;;16.23;47.06;101947.47;5043506;28;20061;-57
2022/04/10 01:56:18;;;;;;;4.80;2.35;;;;;;;16.21;46.79;101944.94;5042721;28;20135;-58
2022/04/10 01:58:46;;;;;;;4.55;2.45;;;;;;;16.21;47.10;101950.28;5049052;28;20458;-58
2022/04/10 02:01:16;;;;;;;6.75;2.28;;;;;;;16.20;46.80;101945.03;5045426;28;20055;-59
2022/04/10 02:03:43;;;;;;;4.88;2.17;;;;;;;16.20;46.91;101953.94;5045385;28;20044;-59
2022/04/10 02:06:13;;;;;;;4.97;2.28;;;;;;;16.17;47.55;101956.81;5028184;28;20053;-59
2022/04/10 02:08:42;;;;;;;3.75;1.92;;;;;;;16.17;46.75;101954.16;5024702;28;20135;-58
2022/04/10 02:11:12;;;;;;;2.78;1.63;;;;;;;16.16;46.43;101951.56;5045457;28;20116;-59
2022/04/10 02:13:39;;;;;;;4.18;1.90;;;;;;;16.16;46.93;101956.91;5044320;28;20049;-58
2022/04/10 02:16:08;;;;;;;2.90;1.73;;;;;;;16.15;46.49;101961.41;5028398;28;20059;-58
2022/04/10 02:18:35;;;;;;;5.40;1.95;;;;;;;16.15;46.47;101957.91;5042320;28;20041;-59
2022/04/10 02:21:02;;;;;;;5.15;1.75;;;;;;;16.14;46.57;101956.19;5046371;28;20045;-58
2022/04/10 02:23:29;;;;;;;5.45;1.90;;;;;;;16.12;47.29;101955.44;5043189;28;20132;-58
2022/04/10 02:25:56;;;;;;;4.10;1.75;;;;;;;16.12;47.18;101955.44;5043016;28;20355;-59
2022/04/10 02:28:22;;;;;;;3.92;1.60;;;;;;;16.12;47.31;101956.31;5046136;28;20044;-59
2022/04/10 02:30:49;;;;;;;2.30;1.70;;;;;;;16.11;46.88;101957.25;5045467;28;20080;-58
2022/04/10 02:33:16;;;;;;;3.90;2.05;;;;;;;16.10;47.76;101952.91;5042308;28;20052;-59
2022/04/10 02:35:45;;;;;;;4.03;1.75;;;;;;;16.11;46.93;101961.75;5045973;28;20044;-58
2022/04/10 02:38:12;;;;;;;3.58;1.60;;;;;;;16.09;47.24;101961.88;5044739;28;20055;-59
2022/04/10 02:40:38;;;;;;;5.65;1.75;;;;;;;16.08;46.85;101959.31;5046143;28;20051;-57
2022/04/10 02:43:05;;;;;;;3.50;1.90;;;;;;;16.09;46.95;101961.88;5044321;28;20047;-58
2022/04/10 02:45:31;;;;;;;4.72;1.83;;;;;;;16.09;47.17;101961.03;5046251;28;20045;-58
2022/04/10 02:47:58;;;;;;;1.73;1.30;;;;;;;16.07;47.20;101958.47;5043245;28;20052;-57
2022/04/10 02:50:25;;;;;;;2.08;1.20;;;;;;;16.07;47.46;101962.97;5044993;28;20041;-58
2022/04/10 02:52:51;;;;;;;2.58;1.35;;;;;;;16.08;47.80;101960.19;5044569;28;20633;-58
2022/04/10 02:55:18;;;;;;;2.50;1.48;;;;;;;16.07;47.49;101960.28;5042104;28;20585;-58
2022/04/10 02:57:45;;;;;;;2.55;1.30;;;;;;;16.06;47.80;101955.91;5042375;28;20055;-59
2022/04/10 03:00:12;;;;;;;5.30;1.70;;;;;;;16.05;47.55;101968.44;5040945;28;20057;-60
2022/04/10 03:02:42;;;;;;;2.25;1.50;;;;;;;16.04;47.06;101969.41;5041968;28;20047;-58
2022/04/10 03:05:09;;;;;;;2.03;1.42;;;;;;;16.04;47.77;101970.25;5045703;28;20044;-58
2022/04/10 03:07:36;;;;;;;2.60;1.48;;;;;;;16.04;47.24;101964.91;5044300;28;20454;-58
2022/04/10 03:10:04;;;;;;;6.80;1.52;;;;;;;16.02;47.73;101972.19;5043348;28;20075;-58
2022/04/10 03:12:30;;;;;;;4.15;1.27;;;;;;;16.01;47.78;101966.94;5044398;28;20045;-58
2022/04/10 03:14:57;;;;;;;3.47;1.52;;;;;;;16.00;47.12;101975.91;5041444;28;20063;-60
2022/04/10 03:17:23;;;;;;;2.25;1.30;;;;;;;16.01;46.88;101969.63;5042789;28;20053;-58
2022/04/10 03:19:50;;;;;;;6.10;1.42;;;;;;;16.00;47.74;101975.91;5042694;28;20700;-59
2022/04/10 03:22:17;;;;;;;2.35;1.25;;;;;;;15.97;46.93;101976.16;5042313;28;20396;-59
2022/04/10 03:24:43;;;;;;;2.10;1.38;;;;;;;15.98;47.68;101980.53;5043490;28;20132;-60
2022/04/10 03:27:10;;;;;;;2.53;1.27;;;;;;;15.97;47.82;101978.84;5044909;28;20075;-58
2022/04/10 03:29:37;;;;;;;2.03;1.10;;;;;;;15.98;47.47;101983.22;5044325;28;20446;-58
2022/04/10 03:32:04;;;;;;;3.40;1.27;;;;;;;15.96;47.65;101986.00;5043493;28;20068;-59
2022/04/10 03:34:30;;;;;;;3.65;1.33;;;;;;;15.96;47.71;101987.81;5043589;28;20471;-58
2022/04/10 03:36:57;;;;;;;3.15;1.52;;;;;;;15.95;46.94;101988.78;5040925;28;20399;-58
2022/04/10 03:39:23;;;;;;;4.57;1.83;;;;;;;15.93;46.79;101996.06;5042796;28;20135;-58
2022/04/10 03:41:50;;;;;;;3.20;1.25;;;;;;;15.94;47.03;101989.75;5044114;28;20126;-58
2022/04/10 03:44:17;;;;;;;4.38;1.42;;;;;;;15.94;47.26;101989.75;5025792;28;20059;-58
2022/04/10 03:46:43;;;;;;;2.65;1.52;;;;;;;15.93;47.73;101991.56;5044092;28;20057;-57
2022/04/10 03:49:10;;;;;;;3.20;1.52;;;;;;;15.91;47.42;101993.50;5043420;28;20052;-59
2022/04/10 03:51:36;;;;;;;3.90;1.60;;;;;;;15.91;47.87;101995.31;5041583;28;20079;-58
2022/04/10 03:54:03;;;;;;;2.47;1.02;;;;;;;15.90;47.27;101993.63;5042926;28;20446;-58
2022/04/10 03:56:29;;;;;;;1.88;1.05;;;;;;;15.92;46.99;101991.66;5042545;28;20045;-59
2022/04/10 03:58:56;;;;;;;6.70;2.08;;;;;;;15.91;46.74;101996.16;5044473;28;20915;-58
2022/04/10 04:01:23;;;;;;;2.67;1.27;;;;;;;15.90;46.79;102001.63;5043262;28;20136;-59
2022/04/10 04:03:50;;;;;;;4.00;1.20;;;;;;;15.90;46.86;101996.28;5045112;28;20049;-59
2022/04/10 04:06:16;;;;;;;2.40;1.35;;;;;;;15.88;47.95;102000.88;5043867;28;20048;-58
2022/04/10 04:08:43;;;;;;;2.38;1.08;;;;;;;15.89;47.73;102005.28;5037531;28;20076;-58
2022/04/10 04:11:09;;;;;;;2.08;1.10;;;;;;;15.87;47.45;102009.88;5043087;28;20431;-59
2022/04/10 04:13:40;;;;;;;1.85;1.33;;;;;;;15.86;47.86;102018.88;5025211;28;20055;-58
2022/04/10 04:16:07;;;;;;;2.63;1.23;;;;;;;15.85;47.70;102023.38;5039453;28;20095;-58
2022/04/10 04:18:35;;;;;;;2.53;1.08;;;;;;;15.86;48.04;102024.22;5043087;28;20037;-58
2022/04/10 04:21:02;;;;;;;3.28;1.20;;;;;;;15.86;47.24;102021.53;5043252;28;20045;-58
2022/04/10 04:23:32;;;;;;;3.28;1.10;;;;;;;15.84;47.44;102023.44;5025164;28;20475;-57
2022/04/10 04:25:59;;;;;;;3.47;1.48;;;;;;;15.84;48.17;102027.00;5040531;28;20350;-58
2022/04/10 04:28:26;;;;;;;2.28;1.10;;;;;;;15.84;47.17;102020.78;5038080;28;20527;-58
2022/04/10 04:30:52;;;;;;;4.25;1.40;;;;;;;15.84;47.18;102020.78;5022094;28;20139;-58
2022/04/10 04:33:20;;;;;;;1.83;1.02;;;;;;;15.85;47.46;102015.34;5043511;28;20437;-58
2022/04/10 04:35:46;;;;;;;1.90;1.00;;;;;;;15.92;47.81;102018.41;5042469;28;20136;-59
2022/04/10 04:38:13;;;;;;;5.05;1.30;;;;;;;15.99;46.95;102022.34;5039326;28;20060;-59
2022/04/10 04:40:39;;;;;;;2.33;1.10;;;;;;;16.07;47.38;102025.31;5043915;28;20053;-59
2022/04/10 04:43:08;;;;;;;2.67;0.80;;;;;;;16.14;46.93;102015.88;5045482;28;20125;-59
2022/04/10 04:45:35;;;;;;;2.47;1.08;;;;;;;16.21;47.39;102022.50;5041163;28;20116;-59
2022/04/10 04:48:01;;;;;;;2.50;1.20;;;;;;;16.27;47.45;102024.72;5044460;28;20045;-59
2022/04/10 04:50:29;;;;;;;5.00;1.88;;;;;;;16.34;47.66;102027.78;5044641;28;20137;-58
2022/04/10 04:52:55;;;;;;;10.88;2.67;;;;;;;16.41;46.78;102033.56;5044160;28;20065;-58
2022/04/10 04:55:22;;;;;;;10.10;4.43;;;;;;;16.47;46.62;102035.75;5041223;28;20075;-58
2022/04/10 04:57:48;;;;;;;7.40;3.80;;;;;;;16.51;46.37;102043.44;5044408;28;20162;-58
2022/04/10 05:00:15;;;;;;;9.98;4.03;;;;;;;16.55;46.47;102038.72;5044195;28;20135;-60
2022/04/10 05:02:42;;;;;;;10.52;5.10;;;;;;;16.58;46.15;102035.81;5027742;28;20041;-58
2022/04/10 05:05:08;;;;;;;11.73;6.05;;;;;;;16.61;46.69;102030.25;5042461;28;20131;-59
2022/04/10 05:07:35;;;;;;;12.95;6.53;;;;;;;16.63;45.92;102030.97;5042043;28;20229;-59
2022/04/10 05:10:01;;;;;;;12.85;6.40;;;;;;;16.65;46.74;102042.44;5042970;28;20424;-59
2022/04/10 05:12:30;;;;;;;10.90;5.70;;;;;;;16.63;46.18;102040.81;5040639;28;20048;-59
2022/04/10 05:14:56;;;;;;;13.38;6.32;;;;;;;16.63;45.71;102041.69;5043931;28;20064;-59
2022/04/10 05:17:26;;;;;;;13.00;6.30;;;;;;;16.63;46.25;102052.38;5048581;28;20076;-60
2022/04/10 05:19:53;;;;;;;10.07;5.63;;;;;;;16.62;45.95;102039.13;5044844;28;20045;-59
2022/04/10 05:22:19;;;;;;;11.93;5.85;;;;;;;16.60;46.37;102049.06;5043161;28;20041;-59
2022/04/10 05:24:46;;;;;;;14.18;6.32;;;;;;;16.61;46.23;102048.13;5043507;28;20051;-58
2022/04/10 05:27:12;;;;;;;13.88;7.10;;;;;;;16.58;45.40;102056.38;5044698;28;20457;-59
2022/04/10 05:29:39;;;;;;;14.02;6.60;;;;;;;16.57;46.05;102060.03;5042573;28;20040;-59
2022/04/10 05:32:06;;;;;;;12.10;5.82;;;;;;;16.55;46.25;102057.44;5044630;28;20067;-59
2022/04/10 05:34:32;;;;;;;10.98;6.05;;;;;;;16.54;45.90;102063.78;5042931;28;20049;-59
2022/04/10 05:36:59;;;;;;;10.65;5.78;;;;;;;16.53;45.65;102065.59;5042590;28;20067;-60
2022/04/10 05:39:25;;;;;;;9.50;5.97;;;;;;;16.50;45.87;102071.19;5042981;28;20041;-59
2022/04/10 05:41:52;;;;;;;12.57;6.10;;;;;;;16.50;45.87;102070.34;5043886;28;20056;-58
2022/04/10 05:44:18;;;;;;;12.98;6.05;;;;;;;16.47;46.24;102074.06;5043901;28;20136;-59
2022/04/10 05:46:45;;;;;;;9.70;5.35;;;;;;;16.48;45.96;102078.47;5043713;28;20343;-59
2022/04/10 05:49:12;;;;;;;12.90;6.93;;;;;;;16.49;46.49;102074.84;5043622;28;20116;-59
2022/04/10 05:51:38;;;;;;;12.88;7.55;;;;;;;16.53;46.35;102083.50;5043172;28;20464;-59
2022/04/10 05:54:05;;;;;;;13.43;7.32;;;;;;;16.59;46.32;102085.69;5041472;28;20053;-59
2022/04/10 05:56:32;;;;;;;17.27;8.75;;;;;;;16.65;46.22;102106.69;5047843;28;20053;-59
2022/04/10 05:58:58;;;;;;;15.02;8.20;;;;;;;16.72;46.25;102105.25;5048779;28;20041;-59
2022/04/10 06:01:25;;;;;;;14.00;8.13;;;;;;;16.80;45.78;102135.97;5049941;28;20300;-60
2022/04/10 06:03:51;;;;;;;17.55;9.80;;;;;;;16.86;45.83;102139.06;5050266;28;20083;-59
2022/04/10 06:06:18;;;;;;;17.17;9.48;;;;;;;16.92;45.72;102148.44;5049217;28;20163;-59
2022/04/10 06:08:45;;;;;;;19.33;9.80;;;;;;;16.98;46.08;102139.97;5046037;28;20067;-58
2022/04/10 06:11:11;;;;;;;15.73;8.80;;;;;;;17.05;46.17;102141.22;5050430;28;20496;-59
2022/04/10 06:13:38;;;;;;;15.57;8.95;;;;;;;17.09;45.59;102144.53;5051777;28;20250;-59
2022/04/10 06:16:05;;;;;;;16.00;9.10;;;;;;;17.13;45.70;102144.19;5048624;28;20053;-59
2022/04/10 06:18:31;;;;;;;20.90;9.27;;;;;;;17.17;46.06;102147.47;5049207;28;20052;-58
2022/04/10 06:20:58;;;;;;;19.33;9.52;;;;;;;17.20;45.46;102160.63;5050479;28;20192;-59
2022/04/10 06:23:25;;;;;;;19.00;10.65;;;;;;;17.21;45.43;102160.53;5050233;28;20092;-58
2022/04/10 06:25:52;;;;;;;19.55;10.52;;;;;;;17.22;45.10;102161.38;5049561;28;20080;-59
2022/04/10 06:28:18;;;;;;;21.15;10.02;;;;;;;17.23;45.70;102163.91;5050946;28;20045;-59
2022/04/10 06:30:45;;;;;;;19.00;10.40;;;;;;;17.23;45.25;102169.28;5050701;28;20052;-60
2022/04/10 06:33:14;;;;;;;18.45;10.75;;;;;;;17.23;45.53;102174.63;5049067;28;20043;-60
2022/04/10 06:35:41;;;;;;;19.77;11.05;;;;;;;17.22;45.57;102180.13;5049835;28;20041;-59
2022/04/10 06:38:07;;;;;;;17.63;10.00;;;;;;;17.20;45.52;102182.91;5046655;28;20076;-59
2022/04/10 06:40:34;;;;;;;19.63;10.55;;;;;;;17.17;45.68;102188.50;5047518;28;20049;-59
2022/04/10 06:43:01;;;;;;;21.95;10.52;;;;;;;17.14;45.01;102199.44;5046073;28;20128;-59
2022/04/10 06:45:27;;;;;;;20.88;10.50;;;;;;;17.12;45.43;102189.81;5046523;28;20053;-59
2022/04/10 06:47:54;;;;;;;18.25;10.07;;;;;;;17.09;45.02;102166.81;5049143;28;20091;-59
2022/04/10 06:50:20;;;;;;;21.02;11.00;;;;;;;17.07;45.15;102171.41;5046481;28;20339;-60
2022/04/10 06:52:50;;;;;;;17.30;9.82;;;;;;;17.04;45.51;102166.28;5043011;28;20048;-59
2022/04/10 06:55:17;;;;;;;17.65;9.85;;;;;;;17.01;45.01;102170.06;5045549;28;20048;-59
2022/04/10 06:57:43;;;;;;;17.52;10.27;;;;;;;16.98;45.50;102166.75;5044252;28;20111;-60
2022/04/10 07:00:10;;;;;;;20.00;10.45;;;;;;;16.94;45.87;102165.28;5042773;28;20387;-59
2022/04/10 07:02:37;;;;;;;18.90;9.60;;;;;;;16.92;45.70;102165.34;5045022;28;20127;-58
2022/04/10 07:05:05;;;;;;;15.70;9.05;;;;;;;16.90;45.54;102170.00;5045041;28;20041;-60
2022/04/10 07:07:32;;;;;;;19.30;10.05;;;;;;;16.90;45.98;102169.13;5043057;28;20083;-59
2022/04/10 07:09:59;;;;;;;16.63;9.45;;;;;;;16.88;45.70;102171.06;5042751;28;20053;-61
2022/04/10 07:12:26;;;;;;;15.77;8.95;;;;;;;16.87;45.77;102172.03;5045949;28;20049;-60
2022/04/10 07:14:53;;;;;;;15.25;8.23;;;;;;;16.85;46.24;102174.84;5012764;28;1049608;-60
2022/04/10 07:17:19;;;;;;;14.48;8.43;;;;;;;16.86;45.93;102170.34;5050212;28;20199;-59
2022/04/10 07:19:46;;;;;;;15.60;7.88;;;;;;;16.86;45.59;102181.06;5048723;28;20044;-60
2022/04/10 07:24:57;;;;;;;13.95;7.47;;;;;;;16.90;45.71;102183.38;5044175;28;20060;-58
2022/04/10 07:27:24;;;;;;;14.00;7.40;;;;;;;16.92;45.29;102178.75;5046095;28;20179;-59
2022/04/10 07:29:51;;;;;;;11.75;7.07;;;;;;;16.95;45.94;102181.22;5045283;28;20040;-60
2022/04/10 07:32:17;;;;;;;14.02;8.20;;;;;;;16.97;45.84;102184.66;5045354;28;20416;-60
2022/04/10 07:34:44;;;;;;;11.05;6.22;;;;;;;16.98;45.60;102191.69;5043893;28;20049;-59
2022/04/10 07:37:11;;;;;;;11.40;6.60;;;;;;;17.00;45.22;102191.56;5041475;28;20049;-59
2022/04/10 07:39:37;;;;;;;13.48;7.05;;;;;;;17.00;45.74;102199.63;5044684;28;20415;-61
2022/04/10 07:42:04;;;;;;;11.50;6.68;;;;;;;17.00;45.61;102191.56;5044848;28;20070;-61
2022/04/10 07:44:54;;;;;;;11.02;6.57;;;;;;;17.02;45.17;102200.38;5043967;28;20053;-59
2022/04/10 07:47:27;;;;;;;10.40;5.85;;;;;;;17.01;46.03;102199.53;5048973;28;20417;-59
2022/04/10 07:49:54;;;;;;;12.43;6.57;;;;;;;17.05;45.30;102204.66;5048057;28;20079;-60
2022/04/10 07:52:21;;;;;;;11.88;5.78;;;;;;;17.06;45.56;102203.69;5046126;28;20036;-59
2022/04/10 07:54:49;;;;;;;9.27;5.15;;;;;;;17.06;45.52;102201.84;5049943;28;20044;-59
2022/04/10 07:57:16;;;;;;;9.30;5.55;;;;;;;17.08;46.00;102213.28;5049579;28;20079;-59
2022/04/10 07:59:43;;;;;;;11.18;5.72;;;;;;;17.10;45.47;102216.72;5051441;28;20378;-59
2022/04/10 08:02:10;;;;;;;9.98;5.18;;;;;;;17.10;45.94;102218.56;5048457;28;20045;-58
2022/04/10 08:04:38;;;;;;;9.50;5.60;;;;;;;17.11;45.31;102217.56;5047631;28;20119;-58
2022/04/10 08:07:05;;;;;;;9.52;5.43;;;;;;;17.12;45.58;102220.13;5044781;28;20124;-60
2022/04/10 08:09:33;;;;;;;11.77;5.85;;;;;;;17.14;45.97;102226.25;5045139;28;20053;-60
2022/04/10 08:12:00;;;;;;;10.80;6.07;;;;;;;17.16;45.94;102226.97;4983367;28;20419;-54
2022/04/10 08:14:36;;;;;;;15.27;8.10;;;;;;;17.22;46.37;102226.53;5036698;28;20559;-61
2022/04/10 08:17:12;;;;;;;22.65;13.07;;;;;;;17.29;45.83;102229.63;5036547;28;20059;-57
2022/04/10 08:19:39;;;;;;;23.65;13.38;;;;;;;17.34;46.18;102224.75;5034812;28;20182;-58
2022/04/10 08:22:05;;;;;;;28.08;16.58;;;;;;;17.40;45.82;102231.47;5032691;28;20041;-52
2022/04/10 08:24:32;;;;;;;31.50;17.67;;;;;;;17.45;45.03;102232.00;5038192;28;20037;-59
2022/04/10 08:26:59;;;;;;;30.83;18.13;;;;;;;17.51;45.61;102228.84;5038818;28;20049;-57
2022/04/10 08:29:26;;;;;;;35.90;19.45;;;;;;;17.56;45.06;102232.00;5037597;28;20100;-58
2022/04/10 08:31:52;;;;;;;31.25;17.52;;;;;;;17.62;44.99;102228.03;4987888;28;20187;-58
2022/04/10 08:34:19;;;;;;;33.17;18.77;;;;;;;17.67;45.05;102232.06;5038954;28;20045;-57
2022/04/10 08:36:46;;;;;;;28.63;16.65;;;;;;;17.73;44.90;102241.47;5038738;28;20178;-60
2022/04/10 08:39:12;;;;;;;28.40;17.05;;;;;;;17.78;44.53;102243.84;5039693;28;20052;-58
2022/04/10 08:41:39;;;;;;;30.52;17.35;;;;;;;17.81;44.67;102236.41;5039492;28;20194;-59
2022/04/10 08:44:05;;;;;;;29.52;16.55;;;;;;;17.86;44.61;102246.78;5038182;28;20049;-56
2022/04/10 08:46:35;;;;;;;31.05;16.60;;;;;;;17.88;44.72;102245.66;5041891;28;20140;-57
2022/04/10 08:49:02;;;;;;;25.88;15.50;;;;;;;17.96;44.58;102253.13;5036506;28;20206;-55
2022/04/10 08:51:30;;;;;;;28.10;15.57;;;;;;;18.00;44.43;102243.88;4992692;28;20443;-56
2022/04/10 08:53:56;;;;;;;24.13;13.98;;;;;;;18.04;44.54;102245.34;5026173;28;20181;-51
2022/04/10 08:56:23;;;;;;;27.45;15.40;;;;;;;18.11;44.59;102243.88;5038130;28;20058;-53
2022/04/10 08:58:50;;;;;;;25.20;13.80;;;;;;;18.16;44.32;102239.00;5038174;28;20084;-54
2022/04/10 09:01:19;;;;;;;24.05;13.35;;;;;;;18.22;43.93;102243.06;5038990;28;20056;-55
2022/04/10 09:03:46;;;;;;;26.05;14.32;;;;;;;18.29;44.25;102243.41;5034738;28;20053;-54
2022/04/10 09:06:14;;;;;;;22.92;13.35;;;;;;;18.31;43.93;102254.91;5038345;28;20261;-56
2022/04/10 09:08:41;;;;;;;21.77;12.95;;;;;;;18.34;44.03;102257.34;5037649;28;20139;-53
2022/04/10 09:11:09;;;;;;;25.73;13.77;;;;;;;18.35;44.06;102248.31;4992537;28;20057;-56
2022/04/10 09:13:38;;;;;;;24.88;13.43;;;;;;;18.36;43.79;102260.75;5019363;28;20481;-57
2022/04/10 09:16:10;;;;;;;23.85;13.73;;;;;;;18.34;44.18;102252.81;5032627;28;20061;-57
2022/04/10 09:18:52;;;;;;;23.88;13.57;;;;;;;18.34;43.81;102260.88;5033740;28;20317;-57
2022/04/10 09:21:22;;;;;;;21.00;12.75;;;;;;;18.34;43.85;102260.03;5041183;28;20045;-57
2022/04/10 09:24:01;;;;;;;25.55;13.40;;;;;;;18.34;43.75;102260.03;5037028;28;20434;-57
2022/04/10 09:26:47;;;;;;;24.40;14.50;;;;;;;18.35;43.54;102257.22;5039323;28;20099;-57
2022/04/10 09:29:19;;;;;;;21.15;12.77;;;;;;;18.40;43.72;102263.06;5034603;28;20061;-57
2022/04/10 09:31:45;;;;;;;21.45;12.40;;;;;;;18.44;43.00;102261.00;4990568;28;20664;-57
2022/04/10 09:34:21;;;;;;;19.60;11.27;;;;;;;18.44;43.03;102261.84;5026418;28;20047;-56
2022/04/10 09:37:08;;;;;;;24.70;12.43;;;;;;;18.49;42.90;102264.16;5035706;28;20040;-56
2022/04/10 09:39:36;;;;;;;18.33;11.02;;;;;;;18.49;43.06;102264.16;5036399;28;20076;-41
2022/04/10 09:42:08;;;;;;;26.80;11.88;;;;;;;18.50;43.86;102260.53;5036350;28;20458;-56
2022/04/10 09:44:54;;;;;;;19.80;11.35;;;;;;;18.58;43.36;102260.75;5034743;28;20044;-46
2022/04/10 09:47:25;;;;;;;20.05;10.68;;;;;;;18.69;42.90;102262.56;5033322;28;20464;-45
2022/04/10 09:49:53;;;;;;;20.13;11.02;;;;;;;18.78;42.44;102267.25;5034901;28;20146;-46
2022/04/10 09:52:20;;;;;;;19.50;10.68;;;;;;;18.86;42.13;102258.56;4984272;28;20240;-52
2022/04/10 09:54:50;;;;;;;19.95;9.82;;;;;;;18.94;42.47;102264.19;5033324;28;20042;-47
2022/04/10 09:57:20;;;;;;;17.35;9.88;;;;;;;18.98;42.10;102262.94;5037387;28;20407;-50
2022/04/10 09:59:48;;;;;;;16.90;10.80;;;;;;;19.02;42.44;102264.41;5033889;28;20049;-49
2022/04/10 10:02:19;;;;;;;15.98;9.40;;;;;;;19.03;42.17;102260.72;5035950;28;20049;-48
2022/04/10 10:04:47;;;;;;;16.70;9.55;;;;;;;19.04;42.56;102267.81;5034580;28;20323;-47
2022/04/10 10:07:16;;;;;;;16.08;9.73;;;;;;;19.05;42.62;102266.81;5036390;28;20466;-53
2022/04/10 10:09:44;;;;;;;16.33;9.27;;;;;;;19.10;42.29;102271.84;5036099;28;20048;-45
2022/04/10 10:12:11;;;;;;;14.48;9.15;;;;;;;19.09;42.46;102273.66;4983276;28;20426;-45
2022/04/10 10:14:41;;;;;;;14.65;8.63;;;;;;;19.09;42.08;102273.66;5021448;28;20310;-51
2022/04/10 10:17:09;;;;;;;16.85;9.18;;;;;;;19.08;41.69;102268.41;5033211;28;20433;-53
2022/04/10 10:19:38;;;;;;;16.80;8.85;;;;;;;19.09;41.99;102270.09;5033310;28;20076;-49
2022/04/10 10:22:07;;;;;;;13.75;7.90;;;;;;;19.10;42.23;102266.47;5034981;28;20049;-52
2022/04/10 10:25:03;;;;;;;18.38;9.25;;;;;;;19.08;42.13;102263.88;5036785;28;20041;-51
2022/04/10 10:27:50;;;;;;;15.23;8.18;;;;;;;19.07;42.21;102256.81;5021480;28;20512;-53
2022/04/10 10:30:35;;;;;;;14.43;8.10;;;;;;;19.08;41.97;102257.66;5035516;28;20471;-50
2022/04/10 10:33:21;;;;;;;14.43;8.88;;;;;;;19.05;41.40;102255.22;4992125;28;20067;-46
2022/04/10 10:35:59;;;;;;;12.18;7.47;;;;;;;19.04;41.82;102262.44;5023118;28;20045;-49
2022/04/10 10:38:30;;;;;;;12.88;8.35;;;;;;;19.07;41.90;102264.88;5034113;28;20053;-49
2022/04/10 10:41:16;;;;;;;15.07;8.38;;;;;;;19.13;41.53;102266.19;5031516;28;20099;-46
2022/04/10 10:43:43;;;;;;;13.05;8.00;;;;;;;19.18;41.79;102259.47;5031908;28;20056;-53
2022/04/10 10:46:32;;;;;;;13.68;7.63;;;;;;;19.21;41.82;102256.50;5031869;28;21117;-53
2022/04/10 10:49:11;;;;;;;13.18;7.70;;;;;;;19.23;41.61;102261.78;5032528;28;20060;-45
2022/04/10 10:51:41;;;;;;;13.98;7.10;;;;;;;19.24;40.99;102266.16;5034064;28;20084;-44
2022/04/10 10:54:12;;;;;;;10.73;7.03;;;;;;;19.24;41.42;102263.47;5038555;28;20107;-40
2022/04/10 10:56:41;;;;;;;13.77;7.72;;;;;;;19.24;41.56;102268.84;5038651;28;20051;-43
2022/04/10 10:59:25;;;;;;;13.25;6.97;;;;;;;19.21;41.22;102269.94;5025061;28;20061;-41
2022/04/10 11:02:08;;;;;;;11.00;6.45;;;;;;;19.20;40.93;102270.94;5037428;28;20045;-43
2022/04/10 11:04:40;;;;;;;13.43;7.10;;;;;;;19.19;41.38;102268.38;5029996;28;20046;-43
2022/04/10 11:07:21;;;;;;;11.73;6.80;;;;;;;19.22;41.52;102265.44;5034810;28;20053;-43
2022/04/10 11:09:54;;;;;;;9.05;6.00;;;;;;;19.28;41.34;102261.38;5030543;28;20041;-43
2022/04/10 11:12:23;;;;;;;12.90;6.30;;;;;;;19.34;41.58;102252.84;5039898;28;20064;-43
2022/04/10 11:14:52;;;;;;;12.38;6.53;;;;;;;19.40;41.27;102255.84;5034141;28;20358;-43
2022/04/10 11:17:20;;;;;;;12.57;6.13;;;;;;;19.47;40.97;102258.88;4981336;28;20054;-44
2022/04/10 11:19:49;;;;;;;10.70;6.32;;;;;;;19.49;40.82;102259.59;5030751;28;20291;-45
2022/04/10 11:22:22;;;;;;;9.57;5.97;;;;;;;19.51;40.90;102257.63;5029040;28;20056;-46
2022/04/10 11:24:53;;;;;;;10.75;5.72;;;;;;;19.55;41.10;102251.03;5030523;28;20040;-47
2022/04/10 11:27:49;;;;;;;10.73;5.60;;;;;;;19.59;41.25;102244.41;5029053;28;20384;-43
2022/04/10 11:30:31;;;;;;;13.23;5.72;;;;;;;19.65;40.95;102245.72;5037105;28;20075;-42